createdAt,value
2023-11-15T00:01:08.852Z,8.79
2023-11-15T00:03:55.106Z,8.74
2023-11-15T00:06:24.188Z,8.73
2023-11-15T00:08:52.405Z,8.70
2023-11-15T00:11:20.325Z,8.70
2023-11-15T00:13:51.746Z,8.68
2023-11-15T00:16:19.541Z,8.62
2023-11-15T00:18:47.166Z,8.61
2023-11-15T00:21:15.647Z,8.63
2023-11-15T00:23:44.460Z,8.63
2023-11-15T00:26:11.992Z,8.67
2023-11-15T00:28:44.593Z,8.68
2023-11-15T00:31:12.918Z,8.67
2023-11-15T00:33:58.607Z,8.69
2023-11-15T00:36:26.276Z,8.71
2023-11-15T00:39:13.781Z,8.71
2023-11-15T00:41:41.871Z,8.70
2023-11-15T00:44:09.385Z,8.71
2023-11-15T00:46:37.241Z,8.67
2023-11-15T00:49:04.981Z,8.62
2023-11-15T00:51:32.419Z,8.61
2023-11-15T00:54:00.148Z,8.62
2023-11-15T00:56:29.231Z,8.64
2023-11-15T00:58:57.900Z,8.63
2023-11-15T01:01:28.673Z,8.62
2023-11-15T01:04:14.966Z,8.61
2023-11-15T01:06:42.457Z,8.58
2023-11-15T01:09:11.419Z,8.54
2023-11-15T01:11:40.428Z,8.54
2023-11-15T01:14:08.032Z,8.47
2023-11-15T01:16:37.479Z,8.46
2023-11-15T01:19:23.721Z,8.41
2023-11-15T01:21:51.702Z,8.36
2023-11-15T01:24:40.733Z,8.40
2023-11-15T01:27:09.705Z,8.40
2023-11-15T01:29:37.361Z,8.50
2023-11-15T01:32:05.060Z,8.51
2023-11-15T01:34:33.884Z,8.54
2023-11-15T01:37:01.427Z,8.57
2023-11-15T01:39:30.883Z,8.55
2023-11-15T01:41:58.357Z,8.59
2023-11-15T01:44:28.475Z,8.58
2023-11-15T01:46:56.123Z,8.58
2023-11-15T01:49:24.350Z,8.57
2023-11-15T01:51:52.312Z,8.56
2023-11-15T01:54:22.661Z,8.54
2023-11-15T01:56:50.533Z,8.52
2023-11-15T01:59:18.196Z,8.52
2023-11-15T02:01:48.624Z,8.51
2023-11-15T02:04:16.390Z,8.58
2023-11-15T02:06:43.936Z,8.59
2023-11-15T02:09:11.632Z,8.53
2023-11-15T02:11:39.854Z,8.60
2023-11-15T02:14:07.350Z,8.57
2023-11-15T02:16:34.870Z,8.58
2023-11-15T02:19:03.726Z,8.59
2023-11-15T02:21:31.269Z,8.59
2023-11-15T02:24:00.319Z,8.59
2023-11-15T02:26:47.907Z,8.59
2023-11-15T02:29:15.472Z,8.54
2023-11-15T02:31:42.977Z,8.49
2023-11-15T02:34:10.628Z,8.54
2023-11-15T02:36:38.080Z,8.51
2023-11-15T02:39:09.972Z,8.51
2023-11-15T02:41:37.523Z,8.49
2023-11-15T02:44:05.681Z,8.47
2023-11-15T02:46:33.705Z,8.43
2023-11-15T02:49:19.665Z,8.39
2023-11-15T02:51:50.198Z,8.34
2023-11-15T02:54:19.413Z,8.36
2023-11-15T02:56:46.951Z,8.37
2023-11-15T02:59:14.524Z,8.37
2023-11-15T03:01:46.938Z,8.37
2023-11-15T03:04:14.750Z,8.35
2023-11-15T03:06:42.305Z,8.34
2023-11-15T03:09:09.787Z,8.34
2023-11-15T03:11:38.782Z,8.26
2023-11-15T03:14:06.302Z,8.29
2023-11-15T03:16:33.768Z,8.28
2023-11-15T03:19:01.255Z,8.29
2023-11-15T03:21:29.403Z,8.29
2023-11-15T03:23:56.920Z,8.31
2023-11-15T03:26:25.283Z,8.34
2023-11-15T03:28:54.117Z,8.35
2023-11-15T03:31:21.973Z,8.36
2023-11-15T03:33:49.671Z,8.35
2023-11-15T03:36:17.526Z,8.34
2023-11-15T03:39:03.940Z,8.24
2023-11-15T03:41:31.433Z,8.18
2023-11-15T03:44:00.293Z,8.13
2023-11-15T03:46:27.896Z,8.07
2023-11-15T03:48:55.354Z,8.06
2023-11-15T03:51:23.210Z,8.06
2023-11-15T03:53:50.768Z,8.07
2023-11-15T03:56:18.241Z,8.11
2023-11-15T03:58:45.780Z,8.13
2023-11-15T04:01:15.232Z,8.17
2023-11-15T04:03:43.198Z,8.19
2023-11-15T04:06:11.103Z,8.19
2023-11-15T04:08:38.712Z,8.18
2023-11-15T04:11:06.350Z,8.15
2023-11-15T04:13:35.494Z,8.16
2023-11-15T04:16:04.490Z,8.09
2023-11-15T04:18:34.276Z,8.08
2023-11-15T04:21:02.044Z,8.05
2023-11-15T04:23:29.841Z,7.98
2023-11-15T04:25:59.499Z,7.95
2023-11-15T04:28:27.103Z,8.00
2023-11-15T04:30:54.577Z,8.02
2023-11-15T04:33:22.175Z,8.05
2023-11-15T04:35:51.080Z,8.04
2023-11-15T04:38:18.534Z,8.08
2023-11-15T04:40:46.574Z,8.11
2023-11-15T04:43:14.215Z,8.12
2023-11-15T04:45:41.791Z,8.08
2023-11-15T04:48:09.352Z,8.09
2023-11-15T04:50:37.617Z,8.12
2023-11-15T04:53:08.295Z,8.14
2023-11-15T04:55:35.949Z,8.13
2023-11-15T04:58:03.380Z,8.12
2023-11-15T05:00:49.631Z,8.12
2023-11-15T05:03:17.255Z,8.12
2023-11-15T05:05:46.948Z,8.17
2023-11-15T05:08:16.077Z,8.18
2023-11-15T05:10:43.479Z,8.17
2023-11-15T05:13:32.573Z,8.16
2023-11-15T05:16:00.354Z,8.18
2023-11-15T05:18:27.943Z,8.23
2023-11-15T05:20:55.500Z,8.23
2023-11-15T05:23:24.807Z,8.25
2023-11-15T05:25:52.301Z,8.27
2023-11-15T05:28:22.034Z,8.29
2023-11-15T05:30:49.600Z,8.32
2023-11-15T05:33:17.211Z,8.27
2023-11-15T05:35:46.183Z,8.29
2023-11-15T05:38:14.392Z,8.28
2023-11-15T05:40:44.710Z,8.27
2023-11-15T05:43:12.347Z,8.23
2023-11-15T05:45:39.780Z,8.17
2023-11-15T05:48:07.598Z,8.10
2023-11-15T05:50:35.201Z,8.08
2023-11-15T05:53:02.755Z,8.06
2023-11-15T05:55:50.014Z,8.05
2023-11-15T05:58:17.281Z,8.02
2023-11-15T06:01:04.338Z,7.97
2023-11-15T06:03:31.857Z,7.99
2023-11-15T06:06:00.514Z,7.98
2023-11-15T06:08:28.025Z,7.95
2023-11-15T06:10:56.830Z,7.94
2023-11-15T06:13:27.146Z,7.91
2023-11-15T06:15:54.577Z,7.92
2023-11-15T06:18:22.935Z,7.94
2023-11-15T06:20:51.231Z,7.91
2023-11-15T06:23:18.866Z,7.96
2023-11-15T06:25:47.361Z,7.97
2023-11-15T06:28:16.151Z,8.03
2023-11-15T06:30:46.198Z,8.15
2023-11-15T06:33:14.024Z,8.07
2023-11-15T06:35:41.879Z,8.12
2023-11-15T06:38:09.611Z,8.10
2023-11-15T06:40:37.077Z,8.07
2023-11-15T06:43:04.689Z,8.09
2023-11-15T06:45:33.627Z,8.10
2023-11-15T06:48:01.726Z,8.12
2023-11-15T06:50:29.648Z,8.11
2023-11-15T06:52:57.199Z,8.10
2023-11-15T06:55:24.748Z,8.09
2023-11-15T06:57:52.335Z,8.08
2023-11-15T07:00:43.239Z,8.08
2023-11-15T07:03:13.503Z,8.10
2023-11-15T07:05:42.069Z,8.00
2023-11-15T07:08:11.072Z,8.01
2023-11-15T07:10:38.780Z,7.96
2023-11-15T07:13:08.354Z,7.93
2023-11-15T07:15:36.590Z,7.91
2023-11-15T07:18:05.583Z,7.90
2023-11-15T07:20:33.179Z,7.89
2023-11-15T07:23:00.672Z,7.87
2023-11-15T07:25:46.802Z,7.86
2023-11-15T07:28:14.280Z,7.84
2023-11-15T07:30:43.334Z,7.83
2023-11-15T07:33:12.310Z,7.80
2023-11-15T07:35:40.068Z,7.84
2023-11-15T07:38:10.602Z,7.82
2023-11-15T07:40:38.617Z,7.82
2023-11-15T07:43:24.754Z,7.88
2023-11-15T07:45:55.080Z,7.96
2023-11-15T07:48:24.560Z,7.97
2023-11-15T07:50:52.578Z,7.99
2023-11-15T07:53:20.193Z,8.01
2023-11-15T07:55:47.700Z,8.05
2023-11-15T07:58:18.360Z,8.16
2023-11-15T08:00:45.846Z,8.21
2023-11-15T08:03:33.152Z,8.27
2023-11-15T08:06:00.720Z,8.28
2023-11-15T08:08:28.272Z,8.20
2023-11-15T08:10:55.778Z,8.35
2023-11-15T08:13:24.138Z,8.35
2023-11-15T08:15:51.905Z,8.47
2023-11-15T08:18:19.634Z,8.53
2023-11-15T08:20:48.795Z,8.57
2023-11-15T08:23:16.458Z,8.58
2023-11-15T08:25:49.472Z,8.62
2023-11-15T08:28:17.127Z,8.61
2023-11-15T08:30:46.778Z,8.59
2023-11-15T08:33:17.834Z,8.62
2023-11-15T08:35:48.145Z,8.53
2023-11-15T08:38:20.763Z,8.46
2023-11-15T08:41:07.497Z,8.46
2023-11-15T08:43:53.461Z,8.52
2023-11-15T08:46:21.375Z,8.56
2023-11-15T08:48:52.829Z,8.62
2023-11-15T08:51:20.646Z,8.66
2023-11-15T08:53:49.546Z,8.67
2023-11-15T08:56:17.098Z,8.67
2023-11-15T08:58:44.662Z,8.60
2023-11-15T09:01:12.172Z,8.56
2023-11-15T09:03:58.460Z,8.52
2023-11-15T09:06:26.128Z,8.45
2023-11-15T09:08:55.764Z,8.45
2023-11-15T09:11:23.391Z,8.55
2023-11-15T09:13:51.169Z,8.59
2023-11-15T09:16:20.439Z,8.58
2023-11-15T09:18:49.748Z,8.57
2023-11-15T09:21:36.141Z,8.52
2023-11-15T09:24:06.233Z,8.57
2023-11-15T09:26:33.962Z,8.60
2023-11-15T09:29:01.550Z,8.66
2023-11-15T09:31:29.062Z,8.73
2023-11-15T09:34:15.315Z,8.84
2023-11-15T09:36:43.655Z,8.95
2023-11-15T09:39:15.901Z,9.00
2023-11-15T09:41:50.206Z,9.04
2023-11-15T09:44:21.086Z,9.05
2023-11-15T09:47:09.053Z,9.13
2023-11-15T09:49:37.742Z,9.17
2023-11-15T09:52:06.938Z,9.11
2023-11-15T09:54:38.204Z,9.05
2023-11-15T09:57:09.061Z,8.96
2023-11-15T09:59:36.912Z,8.96
2023-11-15T10:02:06.101Z,8.92
2023-11-15T10:04:33.599Z,8.92
2023-11-15T10:07:06.108Z,8.84
2023-11-15T10:09:38.063Z,8.89
2023-11-15T10:12:09.742Z,8.93
2023-11-15T10:14:52.363Z,8.93
2023-11-15T10:17:21.869Z,8.95
2023-11-15T10:19:49.814Z,9.06
2023-11-15T10:22:18.967Z,9.01
2023-11-15T10:25:06.013Z,8.96
2023-11-15T10:27:37.091Z,9.03
2023-11-15T10:30:13.957Z,8.95
2023-11-15T10:32:46.792Z,9.20
2023-11-15T10:35:28.572Z,9.32
2023-11-15T10:37:56.891Z,9.35
2023-11-15T10:40:31.181Z,9.37
2023-11-15T10:43:00.066Z,9.47
2023-11-15T10:45:32.215Z,9.57
2023-11-15T10:48:05.294Z,9.54
2023-11-15T10:50:35.050Z,9.64
2023-11-15T10:53:03.382Z,9.85
2023-11-15T10:55:32.640Z,10.20
2023-11-15T10:58:03.931Z,10.52
2023-11-15T11:00:32.465Z,10.42
2023-11-15T11:03:00.103Z,10.22
2023-11-15T11:05:42.089Z,10.20
2023-11-15T11:08:23.443Z,10.32
2023-11-15T11:11:03.467Z,10.32
2023-11-15T11:13:34.449Z,10.29
2023-11-15T11:16:35.795Z,10.05
2023-11-15T11:19:12.512Z,10.07
2023-11-15T11:22:13.151Z,10.08
2023-11-15T11:24:47.175Z,10.15
2023-11-15T11:27:32.914Z,10.65
2023-11-15T11:30:17.051Z,10.72
2023-11-15T11:32:48.762Z,10.45
2023-11-15T11:35:31.942Z,10.51
2023-11-15T11:38:01.398Z,10.98
2023-11-15T11:40:32.870Z,11.45
2023-11-15T11:43:16.251Z,11.59
2023-11-15T11:46:30.661Z,11.30
2023-11-15T11:53:04.729Z,11.22
2023-11-15T11:55:33.368Z,11.05
2023-11-15T11:58:03.349Z,10.84
2023-11-15T12:00:32.319Z,10.72
2023-11-15T12:03:03.521Z,10.70
2023-11-15T12:05:33.909Z,10.70
2023-11-15T12:08:03.414Z,10.63
2023-11-15T12:10:32.057Z,10.56
2023-11-15T12:13:01.620Z,10.57
2023-11-15T12:15:29.556Z,10.52
2023-11-15T12:18:00.976Z,10.47
2023-11-15T12:20:30.264Z,10.61
2023-11-15T12:23:06.161Z,10.58
2023-11-15T12:25:34.384Z,10.53
2023-11-15T12:28:02.978Z,10.52
2023-11-15T12:30:33.665Z,10.48
2023-11-15T12:33:03.944Z,10.44
2023-11-15T12:35:32.735Z,10.42
2023-11-15T12:38:05.531Z,10.43
2023-11-15T12:40:35.746Z,10.42
2023-11-15T12:43:19.172Z,10.48
2023-11-15T12:45:47.555Z,10.48
2023-11-15T12:48:16.797Z,10.61
2023-11-15T12:50:49.582Z,10.70
2023-11-15T12:53:18.735Z,10.74
2023-11-15T12:55:50.587Z,10.77
2023-11-15T12:58:19.251Z,11.01
2023-11-15T13:01:00.551Z,10.96
2023-11-15T13:03:32.433Z,10.87
2023-11-15T13:06:10.710Z,10.61
2023-11-15T13:08:39.260Z,10.75
2023-11-15T13:11:07.051Z,11.15
2023-11-15T13:13:34.723Z,11.11
2023-11-15T13:16:02.422Z,11.16
2023-11-15T13:18:31.388Z,11.10
2023-11-15T13:20:59.374Z,10.93
2023-11-15T13:23:28.316Z,10.85
2023-11-15T13:25:55.869Z,10.79
2023-11-15T13:28:23.565Z,10.78
2023-11-15T13:30:51.426Z,10.70
2023-11-15T13:33:19.591Z,10.63
2023-11-15T13:35:50.479Z,10.51
2023-11-15T13:38:18.006Z,10.43
2023-11-15T13:40:46.134Z,10.38
2023-11-15T13:43:13.754Z,10.33
2023-11-15T13:45:43.324Z,10.33
2023-11-15T13:48:11.042Z,10.28
2023-11-15T13:50:38.590Z,10.24
2023-11-15T13:53:07.497Z,10.16
2023-11-15T13:55:35.324Z,10.12
2023-11-15T13:58:03.169Z,10.13
2023-11-15T14:00:34.830Z,10.17
2023-11-15T14:03:07.596Z,10.18
2023-11-15T14:05:35.351Z,10.18
2023-11-15T14:08:06.091Z,10.22
2023-11-15T14:10:35.169Z,10.22
2023-11-15T14:13:06.122Z,10.18
2023-11-15T14:15:34.009Z,10.15
2023-11-15T14:18:05.032Z,10.18
2023-11-15T14:20:32.749Z,10.19
2023-11-15T14:23:00.345Z,10.22
2023-11-15T14:25:33.089Z,10.22
2023-11-15T14:28:04.071Z,10.24
2023-11-15T14:30:31.919Z,10.25
2023-11-15T14:32:59.906Z,10.32
2023-11-15T14:35:28.489Z,10.36
2023-11-15T14:37:57.162Z,10.36
2023-11-15T14:40:25.740Z,10.35
2023-11-15T14:42:57.002Z,10.33
2023-11-15T14:45:26.597Z,10.30
2023-11-15T14:47:54.832Z,10.25
2023-11-15T14:50:24.274Z,10.20
2023-11-15T14:53:09.053Z,10.20
2023-11-15T14:55:36.953Z,10.19
2023-11-15T14:58:04.896Z,10.09
2023-11-15T15:00:35.241Z,10.18
2023-11-15T15:03:03.853Z,10.14
2023-11-15T15:05:31.462Z,10.10
2023-11-15T15:08:01.231Z,10.04
2023-11-15T15:10:28.783Z,10.06
2023-11-15T15:12:56.418Z,10.04
2023-11-15T15:15:24.604Z,10.07
2023-11-15T15:17:53.640Z,9.99
2023-11-15T15:20:21.354Z,9.81
2023-11-15T15:22:49.301Z,9.89
2023-11-15T15:25:17.228Z,9.96
2023-11-15T15:27:45.442Z,9.98
2023-11-15T15:30:18.243Z,9.97
2023-11-15T15:32:46.622Z,9.93
2023-11-15T15:35:16.557Z,9.91
2023-11-15T15:37:48.468Z,9.84
2023-11-15T15:40:19.901Z,9.83
2023-11-15T15:42:48.322Z,9.81
2023-11-15T15:45:16.496Z,9.78
2023-11-15T15:47:45.146Z,9.81
2023-11-15T15:50:12.869Z,9.79
2023-11-15T15:52:42.601Z,9.78
2023-11-15T15:55:11.563Z,9.74
2023-11-15T15:57:39.427Z,9.75
2023-11-15T16:00:08.348Z,9.65
2023-11-15T16:02:36.406Z,9.67
2023-11-15T16:05:04.718Z,9.59
2023-11-15T16:07:33.432Z,9.53
2023-11-15T16:10:02.957Z,9.46
2023-11-15T16:12:37.235Z,9.44
2023-11-15T16:15:09.479Z,9.36
2023-11-15T16:17:37.464Z,9.27
2023-11-15T16:20:06.161Z,9.22
2023-11-15T16:22:33.561Z,9.16
2023-11-15T16:25:02.498Z,9.14
2023-11-15T16:27:34.489Z,9.08
2023-11-15T16:30:06.452Z,8.98
2023-11-15T16:32:36.578Z,8.88
2023-11-15T16:35:06.636Z,8.82
2023-11-15T16:37:36.865Z,8.83
2023-11-15T16:40:09.103Z,8.79
2023-11-15T16:42:39.931Z,8.80
2023-11-15T16:45:09.095Z,8.82
2023-11-15T16:47:39.303Z,8.82
2023-11-15T16:50:08.405Z,8.87
2023-11-15T16:52:36.436Z,8.85
2023-11-15T16:55:05.006Z,8.82
2023-11-15T16:57:35.668Z,8.85
2023-11-15T17:00:03.538Z,8.82
2023-11-15T17:02:31.164Z,8.81
2023-11-15T17:04:58.665Z,8.83
2023-11-15T17:07:26.258Z,8.83
2023-11-15T17:09:53.857Z,8.89
2023-11-15T17:12:24.045Z,8.89
2023-11-15T17:14:53.073Z,8.91
2023-11-15T17:17:20.827Z,8.90
2023-11-15T17:19:48.374Z,8.91
2023-11-15T17:22:16.225Z,8.87
2023-11-15T17:24:44.419Z,8.80
2023-11-15T17:27:11.980Z,8.76
2023-11-15T17:29:40.602Z,8.75
2023-11-15T17:32:09.951Z,8.72
2023-11-15T17:34:37.644Z,8.65
2023-11-15T17:37:05.489Z,8.63
2023-11-15T17:39:33.312Z,8.56
2023-11-15T17:42:06.851Z,8.49
2023-11-15T17:44:34.481Z,8.52
2023-11-15T17:47:02.053Z,8.53
2023-11-15T17:49:33.502Z,8.55
2023-11-15T17:52:03.013Z,8.54
2023-11-15T17:54:33.528Z,8.54
2023-11-15T17:57:01.139Z,8.52
2023-11-15T17:59:28.818Z,8.52
2023-11-15T18:01:58.379Z,8.50
2023-11-15T18:04:27.161Z,8.50
2023-11-15T18:06:55.919Z,8.53
2023-11-15T18:09:27.579Z,8.55
2023-11-15T18:11:55.234Z,8.57
2023-11-15T18:14:22.801Z,8.55
2023-11-15T18:16:50.272Z,8.57
2023-11-15T18:19:21.945Z,8.57
2023-11-15T18:21:50.020Z,8.59
2023-11-15T18:24:19.204Z,8.60
2023-11-15T18:26:49.462Z,8.61
2023-11-15T18:29:17.051Z,8.48
2023-11-15T18:31:44.707Z,8.62
2023-11-15T18:34:12.510Z,8.61
2023-11-15T18:36:44.294Z,8.65
2023-11-15T18:39:18.105Z,8.63
2023-11-15T18:41:49.426Z,8.65
2023-11-15T18:44:17.286Z,8.69
2023-11-15T18:46:49.638Z,8.79
2023-11-15T18:49:18.640Z,8.86
2023-11-15T18:51:48.421Z,8.93
2023-11-15T18:54:19.325Z,8.97
2023-11-15T18:56:47.298Z,8.96
2023-11-15T18:59:16.109Z,8.98
2023-11-15T19:01:48.063Z,9.02
2023-11-15T19:04:15.771Z,9.01
2023-11-15T19:06:44.565Z,9.02
2023-11-15T19:09:12.172Z,9.06
2023-11-15T19:11:40.523Z,9.05
2023-11-15T19:14:08.049Z,9.07
2023-11-15T19:16:37.058Z,9.08
2023-11-15T19:19:05.897Z,9.08
2023-11-15T19:21:33.416Z,9.07
2023-11-15T19:24:01.574Z,9.04
2023-11-15T19:26:32.148Z,9.01
2023-11-15T19:28:59.618Z,8.94
2023-11-15T19:31:27.120Z,8.92
2023-11-15T19:33:57.012Z,8.83
2023-11-15T19:36:24.599Z,8.79
2023-11-15T19:38:52.230Z,8.77
2023-11-15T19:41:19.919Z,8.73
2023-11-15T19:43:47.715Z,8.71
2023-11-15T19:46:18.822Z,8.71
2023-11-15T19:48:47.654Z,8.66
2023-11-15T19:51:36.992Z,8.66
2023-11-15T19:54:08.186Z,8.69
2023-11-15T19:56:36.040Z,8.66
2023-11-15T19:59:04.818Z,8.69
2023-11-15T20:01:32.368Z,8.67
2023-11-15T20:04:02.060Z,8.64
2023-11-15T20:06:31.977Z,8.61
2023-11-15T20:08:59.829Z,8.77
2023-11-15T20:11:27.891Z,8.76
2023-11-15T20:13:55.687Z,8.76
2023-11-15T20:16:24.379Z,8.77
2023-11-15T20:18:52.051Z,8.75
2023-11-15T20:21:20.776Z,8.73
2023-11-15T20:23:49.438Z,8.71
2023-11-15T20:26:17.013Z,8.73
2023-11-15T20:28:44.937Z,8.76
2023-11-15T20:31:12.740Z,8.68
2023-11-15T20:33:42.489Z,8.73
2023-11-15T20:36:11.497Z,8.76
2023-11-15T20:38:39.380Z,8.77
2023-11-15T20:41:08.739Z,8.80
2023-11-15T20:43:37.103Z,8.80
2023-11-15T20:46:17.279Z,8.78
2023-11-15T20:48:47.174Z,8.77
2023-11-15T20:51:15.134Z,8.74
2023-11-15T20:53:42.855Z,8.73
2023-11-15T20:56:11.674Z,8.68
2023-11-15T20:58:39.175Z,8.66
2023-11-15T21:01:07.782Z,8.65
2023-11-15T21:03:35.508Z,8.61
2023-11-15T21:06:05.326Z,8.63
2023-11-15T21:08:35.970Z,8.68
2023-11-15T21:11:04.663Z,8.63
2023-11-15T21:13:33.404Z,8.63
2023-11-15T21:16:07.291Z,8.67
2023-11-15T21:18:34.900Z,8.64
2023-11-15T21:21:03.579Z,8.63
2023-11-15T21:23:31.624Z,8.63
2023-11-15T21:25:59.277Z,8.61
2023-11-15T21:28:26.761Z,8.57
2023-11-15T21:30:55.628Z,8.51
2023-11-15T21:33:23.157Z,8.43
2023-11-15T21:35:52.838Z,8.39
2023-11-15T21:38:20.565Z,8.35
2023-11-15T21:40:48.529Z,8.34
2023-11-15T21:43:16.063Z,8.28
2023-11-15T21:45:43.642Z,8.26
2023-11-15T21:48:12.617Z,8.26
2023-11-15T21:50:40.062Z,8.24
2023-11-15T21:53:07.905Z,8.21
2023-11-15T21:55:35.497Z,8.16
2023-11-15T21:58:03.705Z,8.16
2023-11-15T22:00:32.025Z,8.15
2023-11-15T22:02:59.682Z,8.10
2023-11-15T22:05:28.637Z,8.05
2023-11-15T22:07:56.267Z,7.94
2023-11-15T22:10:23.965Z,7.92
2023-11-15T22:12:52.108Z,7.85
2023-11-15T22:15:21.213Z,7.81
2023-11-15T22:17:49.288Z,7.82
2023-11-15T22:20:16.895Z,7.80
2023-11-15T22:22:46.030Z,7.79
2023-11-15T22:25:13.684Z,7.76
2023-11-15T22:27:41.224Z,7.74
2023-11-15T22:30:11.185Z,7.72
2023-11-15T22:32:39.604Z,7.73
2023-11-15T22:35:08.167Z,7.74
2023-11-15T22:37:35.777Z,7.76
2023-11-15T22:40:07.074Z,7.75
2023-11-15T22:42:34.631Z,7.74
2023-11-15T22:45:02.984Z,7.68
2023-11-15T22:47:30.677Z,7.66
2023-11-15T22:49:58.476Z,7.66
2023-11-15T22:52:25.943Z,7.68
2023-11-15T22:54:53.438Z,7.69
2023-11-15T22:57:22.365Z,7.67
2023-11-15T22:59:52.340Z,7.64
2023-11-15T23:02:21.006Z,7.62
2023-11-15T23:04:48.835Z,7.58
2023-11-15T23:07:21.401Z,7.63
2023-11-15T23:09:49.252Z,7.67
2023-11-15T23:12:17.078Z,7.65
2023-11-15T23:14:46.467Z,7.64
2023-11-15T23:17:13.916Z,7.64
2023-11-15T23:19:41.463Z,7.65
2023-11-15T23:22:09.459Z,7.63
2023-11-15T23:24:37.967Z,7.67
2023-11-15T23:27:06.173Z,7.67
2023-11-15T23:29:34.088Z,7.70
2023-11-15T23:32:06.468Z,7.74
2023-11-15T23:34:34.044Z,7.76
2023-11-15T23:37:01.594Z,7.73
2023-11-15T23:39:29.057Z,7.79
2023-11-15T23:41:56.574Z,7.79
2023-11-15T23:44:24.041Z,7.83
2023-11-15T23:46:52.865Z,7.82
2023-11-15T23:49:22.144Z,7.84
2023-11-15T23:51:49.581Z,7.88
2023-11-15T23:54:18.300Z,7.85
2023-11-15T23:56:45.929Z,7.93
2023-11-15T23:59:13.495Z,7.95
